Time;durP1;ratioP1;P1;durP2;ratioP2;P2;SDS_P1;SDS_P2;PMS_P1;PMS_P2;Temp;Humidity;BMP_temperature;BMP_pressure;BME280_temperature;BME280_humidity;BME280_pressure;Samples;Min_cycle;Max_cycle;Signal;HPM_P1;HPM_P2
2022/01/31 00:02:04;;;;;;;9.77;5.22;;;4.80;99.90;;;;;;4821228;29;20046;-90
2022/01/31 00:04:38;;;;;;;14.45;7.13;;;4.80;99.90;;;;;;4780716;30;20154;-89
2022/01/31 00:07:16;;;;;;;13.00;6.03;;;4.80;99.90;;;;;;4766512;30;20145;-89
2022/01/31 00:10:11;;;;;;;11.05;6.70;;;4.80;99.90;;;;;;4780876;30;20127;-89
2022/01/31 00:15:35;;;;;;;9.43;5.30;;;4.90;99.90;;;;;;4781174;30;20039;-90
2022/01/31 00:18:23;;;;;;;7.13;5.55;;;4.80;99.90;;;;;;4767059;30;20050;-89
2022/01/31 00:21:09;;;;;;;9.73;5.80;;;4.90;99.90;;;;;;4766760;30;20122;-89
2022/01/31 00:23:43;;;;;;;17.42;5.80;;;;;;;;;;4767965;30;20597;-89
2022/01/31 00:26:39;;;;;;;15.60;8.27;;;4.90;99.90;;;;;;4764527;30;20055;-89
2022/01/31 00:32:16;;;;;;;18.42;6.20;;;;;;;;;;4770481;30;20044;-89
2022/01/31 00:34:52;;;;;;;11.30;5.82;;;4.90;99.90;;;;;;4760614;29;20077;-89
2022/01/31 00:37:19;;;;;;;9.68;5.50;;;;;;;;;;4836005;29;20069;-89
2022/01/31 00:40:49;;;;;;;15.70;7.10;;;4.90;99.90;;;;;;4806638;29;20058;-89
2022/01/31 00:43:20;;;;;;;21.48;7.05;;;;;;;;;;4801514;29;20057;-90
2022/01/31 00:46:09;;;;;;;14.25;5.60;;;4.90;99.90;;;;;;4801777;29;20409;-89
2022/01/31 00:48:49;;;;;;;9.18;5.97;;;4.90;99.90;;;;;;4842755;29;20110;-89
2022/01/31 01:00:45;;;;;;;10.45;5.00;;;4.90;99.90;;;;;;4848929;29;20042;-89
2022/01/31 01:03:15;;;;;;;18.83;7.18;;;;;;;;;;4853400;29;20571;-90
2022/01/31 01:05:45;;;;;;;16.85;6.07;;;4.90;99.90;;;;;;4838765;29;20466;-90
2022/01/31 01:08:32;;;;;;;13.18;7.00;;;4.90;99.90;;;;;;4853898;29;20034;-89
2022/01/31 01:10:58;;;;;;;11.00;7.13;;;;;;;;;;4824844;29;20049;-89
2022/01/31 01:13:32;;;;;;;21.88;8.70;;;4.90;99.90;;;;;;4840071;29;20056;-91
2022/01/31 01:16:22;;;;;;;17.95;8.15;;;4.80;99.90;;;;;;4825474;29;20052;-90
2022/01/31 01:18:48;;;;;;;13.80;7.65;;;;;;;;;;4823385;29;20042;-90
2022/01/31 01:21:20;;;;;;;12.43;7.82;;;4.70;99.90;;;;;;4838478;29;20037;-89
2022/01/31 01:23:58;;;;;;;13.63;6.70;;;4.70;99.90;;;;;;4823521;29;20027;-90
2022/01/31 01:26:32;;;;;;;16.00;7.38;;;4.70;99.90;;;;;;4838579;29;20038;-89
2022/01/31 01:29:03;;;;;;;10.00;6.00;;;;;;;;;;4838693;29;20047;-90
2022/01/31 01:31:59;;;;;;;22.20;6.38;;;4.60;99.90;;;;;;4853510;29;20034;-90
2022/01/31 01:34:34;;;;;;;16.15;8.05;;;;;;;;;;4839399;29;20499;-90
2022/01/31 01:37:20;;;;;;;27.90;8.60;;;4.60;99.90;;;;;;4838147;29;20046;-90
2022/01/31 01:39:51;;;;;;;21.73;8.30;;;;;;;;;;4839089;29;20142;-90
2022/01/31 01:42:37;;;;;;;16.38;8.20;;;4.50;99.90;;;;;;4813809;29;20047;-90
2022/01/31 01:45:06;;;;;;;16.90;6.25;;;;;;;;;;4824388;29;20086;-90
2022/01/31 01:51:00;;;;;;;22.05;8.75;;;4.40;99.90;;;;;;4852432;29;20078;-92
2022/01/31 01:54:00;;;;;;;12.20;6.85;;;4.40;99.90;;;;;;4801154;29;20046;-90
2022/01/31 01:57:40;;;;;;;28.73;8.60;;;4.40;99.90;;;;;;4790194;30;20050;-91
2022/01/31 02:05:12;;;;;;;22.13;9.18;;;4.40;99.90;;;;;;4730518;30;20070;-91
2022/01/31 02:08:26;;;;;;;13.30;7.22;;;2.80;99.90;;;;;;4730964;30;20125;-92
2022/01/31 02:11:43;;;;;;;30.67;7.55;;;4.40;99.90;;;;;;4722210;30;20048;-91
2022/01/31 02:15:33;;;;;;;12.73;7.30;;;4.40;99.90;;;;;;4710555;30;20110;-91
2022/01/31 02:22:53;;;;;;;23.13;9.68;;;4.40;99.90;;;;;;4695376;30;20038;-91
2022/01/31 02:26:19;;;;;;;8.27;5.75;;;4.50;99.90;;;;;;4717628;30;20052;-91
2022/01/31 02:29:40;;;;;;;16.13;7.32;;;4.60;99.90;;;;;;4783340;30;20055;-91
2022/01/31 02:32:17;;;;;;;13.00;6.57;;;;;;;;;;4758246;30;20115;-91
2022/01/31 02:35:11;;;;;;;19.17;7.72;;;4.60;99.90;;;;;;4777659;29;20043;-91
2022/01/31 02:38:15;;;;;;;11.23;8.45;;;4.60;99.90;;;;;;4804157;29;20031;-92
2022/01/31 02:41:06;;;;;;;;;;;;;;;;;;;;;
2022/01/31 02:44:15;;;;;;;9.15;7.78;;;4.70;99.90;;;;;;4807765;29;20072;-91
2022/01/31 02:50:18;;;;;;;12.07;6.03;;;;;;;;;;4784122;29;20051;-92
2022/01/31 02:53:36;;;;;;;15.55;7.35;;;;;;;;;;4791717;30;20638;-91
2022/01/31 02:55:41;;;;;;;10.35;5.53;;;4.90;99.90;;;;;;4808646;29;20034;-92
2022/01/31 02:58:18;;;;;;;20.08;6.78;;;;;;;;;;4823374;29;20038;-91
2022/01/31 03:04:34;;;;;;;14.18;4.70;;;5.10;99.90;;;;;;4837119;29;20045;-91
2022/01/31 03:08:23;;;;;;;;;;;;;;;;;;;;;
2022/01/31 03:12:16;;;;;;;;;;;;;;;;;;;;;
2022/01/31 03:15:57;;;;;;;18.88;5.28;;;5.30;99.90;;;;;;4782469;30;20071;-91
2022/01/31 03:19:21;;;;;;;11.77;5.57;;;5.30;99.90;;;;;;4741143;30;20062;-92
2022/01/31 03:25:58;;;;;;;8.57;4.80;;;5.40;99.90;;;;;;4804641;30;20112;-91
2022/01/31 03:29:32;;;;;;;;;;;;;;;;;;;;;
2022/01/31 03:34:04;;;;;;;5.15;3.28;;;5.50;99.90;;;;;;4800233;30;20048;-92
2022/01/31 03:40:06;;;;;;;9.68;6.45;;;5.50;99.90;;;;;;4784535;30;20075;-91
2022/01/31 03:42:51;;;;;;;10.75;5.40;;;5.60;99.90;;;;;;4810663;29;20047;-92
2022/01/31 03:45:35;;;;;;;7.45;5.25;;;5.60;99.90;;;;;;4818319;29;20042;-92
2022/01/31 03:51:55;;;;;;;11.60;5.18;;;5.60;99.90;;;;;;4805921;29;20142;-93
2022/01/31 03:54:42;;;;;;;9.30;7.22;;;5.60;99.90;;;;;;4813106;29;20053;-91
2022/01/31 03:57:49;;;;;;;9.13;6.28;;;5.70;99.90;;;;;;4840154;29;20034;-91
2022/01/31 04:00:50;;;;;;;6.38;5.47;;;5.70;99.90;;;;;;4831310;29;20115;-92
2022/01/31 04:03:27;;;;;;;9.80;5.30;;;5.70;99.90;;;;;;4841081;29;20041;-92
2022/01/31 04:08:48;;;;;;;13.63;5.88;;;;;;;;;;4836310;29;20515;-92
2022/01/31 04:11:45;;;;;;;10.48;5.63;;;5.80;99.90;;;;;;4839872;29;20064;-91
2022/01/31 04:14:39;;;;;;;6.03;5.53;;;5.80;99.90;;;;;;4839149;29;20046;-93
2022/01/31 04:17:24;;;;;;;10.35;5.15;;;5.90;99.90;;;;;;4827228;29;20080;-92
2022/01/31 04:19:56;;;;;;;14.00;6.38;;;;;;;;;;4826056;29;20415;-93
2022/01/31 04:22:37;;;;;;;8.20;5.63;;;5.90;99.90;;;;;;4825929;29;20062;-92
2022/01/31 04:25:42;;;;;;;8.35;4.53;;;5.90;99.90;;;;;;4839813;29;20049;-92
2022/01/31 04:28:21;;;;;;;10.73;4.43;;;6.00;99.90;;;;;;4826156;29;20045;-93
2022/01/31 04:33:45;;;;;;;3.28;2.63;;;6.10;99.90;;;;;;4855822;29;20042;-92
2022/01/31 04:36:25;;;;;;;9.48;3.53;;;6.00;99.90;;;;;;4825223;29;20042;-93
2022/01/31 04:39:03;;;;;;;5.43;3.53;;;6.10;99.90;;;;;;4825482;29;20038;-92
2022/01/31 04:41:29;;;;;;;4.88;3.58;;;;;;;;;;4823236;29;20419;-91
2022/01/31 04:46:55;;;;;;;20.33;4.07;;;6.10;99.90;;;;;;4821491;29;20050;-92
2022/01/31 04:49:37;;;;;;;5.68;3.47;;;6.10;99.90;;;;;;4807095;29;20042;-93
2022/01/31 04:52:07;;;;;;;7.77;3.53;;;6.10;99.90;;;;;;4821198;29;20058;-92
2022/01/31 04:54:41;;;;;;;8.00;3.17;;;;;;;;;;4821039;29;20303;-92
2022/01/31 04:57:13;;;;;;;8.07;2.88;;;6.10;99.90;;;;;;4821042;29;20049;-93
2022/01/31 04:59:50;;;;;;;9.57;3.83;;;6.10;99.90;;;;;;4821514;29;20047;-91
2022/01/31 05:02:37;;;;;;;6.15;3.53;;;6.10;99.90;;;;;;4823474;29;20110;-93
2022/01/31 05:05:06;;;;;;;7.60;3.25;;;6.00;99.90;;;;;;4820702;29;20404;-92
2022/01/31 05:07:52;;;;;;;12.38;3.05;;;6.00;99.90;;;;;;4820606;29;20038;-92
2022/01/31 05:10:24;;;;;;;11.18;3.80;;;;;;;;;;4793225;29;20050;-91
2022/01/31 05:12:50;;;;;;;15.27;3.67;;;;;;;;;;4836089;29;20121;-92
2022/01/31 05:15:47;;;;;;;13.98;4.28;;;6.00;99.90;;;;;;4836407;29;20384;-91
2022/01/31 05:18:53;;;;;;;16.63;3.22;;;6.00;99.90;;;;;;4818886;29;20042;-92
2022/01/31 05:21:25;;;;;;;8.65;3.17;;;6.00;99.90;;;;;;4806027;29;20057;-90
2022/01/31 05:23:51;;;;;;;3.08;2.72;;;;;;;;;;4820675;29;20404;-91
2022/01/31 05:26:23;;;;;;;9.52;3.60;;;6.00;99.90;;;;;;4836080;29;20038;-91
2022/01/31 05:28:49;;;;;;;8.95;4.38;;;;;;;;;;4823388;29;20042;-91
2022/01/31 05:31:32;;;;;;;;;;;;;;;;;;;;;
2022/01/31 05:34:08;;;;;;;22.40;3.47;;;;;;;;;;4823003;29;20048;-92
2022/01/31 05:36:54;;;;;;;14.10;3.60;;;5.90;99.90;;;;;;4836182;29;20042;-92
2022/01/31 05:40:18;;;;;;;;;;;;;;;;;;;;;
2022/01/31 05:46:14;;;;;;;7.43;2.95;;;;;;;;;;4812325;29;20058;-92
2022/01/31 05:48:45;;;;;;;11.35;4.28;;;5.90;99.90;;;;;;4792191;29;20080;-92
2022/01/31 05:51:27;;;;;;;9.63;3.83;;;5.90;99.90;;;;;;4791282;29;20070;-91
2022/01/31 05:54:28;;;;;;;6.05;3.35;;;5.90;99.90;;;;;;4820997;29;20035;-92
2022/01/31 05:57:37;;;;;;;9.10;3.55;;;5.90;99.90;;;;;;4809652;29;20039;-91
2022/01/31 06:03:50;;;;;;;6.75;2.58;;;6.00;99.90;;;;;;4821557;29;20181;-92
2022/01/31 06:07:22;;;;;;;13.55;5.05;;;5.90;99.90;;;;;;4776533;29;20039;-91
2022/01/31 06:10:52;;;;;;;;;;;;;;;;;;;;;
2022/01/31 06:14:40;;;;;;;;;;;;;;;;;;;;;
2022/01/31 07:00:15;;;;;;;13.05;3.75;;;5.40;99.90;;;;;;4835681;29;20077;-93
2022/01/31 07:04:14;;;;;;;;;;;;;;;;;;;;;
2022/01/31 07:11:35;;;;;;;9.45;4.82;;;5.30;99.90;;;;;;4764762;30;20163;-92
2022/01/31 07:31:38;;;;;;;;;;;;;;;;;;;;;
2022/01/31 07:35:14;;;;;;;5.03;2.58;;;5.10;99.90;;;;;;4734255;30;20041;-93
2022/01/31 07:46:06;;;;;;;10.00;3.85;;;5.10;99.90;;;;;;4763315;30;20410;-92
2022/01/31 07:56:42;;;;;;;9.43;3.63;;;5.10;99.90;;;;;;4819651;29;20126;-92
2022/01/31 08:07:23;;;;;;;10.82;5.00;;;5.10;99.90;;;;;;4819716;29;20098;-94
2022/01/31 08:10:43;;;;;;;17.55;4.68;;;5.20;99.90;;;;;;4792254;29;20111;-92
2022/01/31 08:13:54;;;;;;;24.38;4.65;;;5.20;99.90;;;;;;4768823;30;20044;-93
2022/01/31 08:17:22;;;;;;;;;;;;;;;;;;;;;
2022/01/31 08:21:07;;;;;;;;;;;;;;;;;;;;;
2022/01/31 08:24:25;;;;;;;10.65;5.47;;;5.20;99.90;;;;;;4701996;30;20127;-92
2022/01/31 08:27:06;;;;;;;12.65;7.63;;;5.10;99.90;;;;;;4729895;30;20049;-93
2022/01/31 08:29:59;;;;;;;10.20;3.60;;;5.20;99.90;;;;;;4732408;30;20121;-92
2022/01/31 08:35:56;;;;;;;13.43;4.35;;;5.10;99.90;;;;;;4742028;30;20052;-91
2022/01/31 08:38:42;;;;;;;13.82;4.43;;;;;;;;;;4748771;30;20583;-93
2022/01/31 08:41:47;;;;;;;9.35;3.95;;;5.10;99.90;;;;;;4747040;30;20048;-92
2022/01/31 08:44:31;;;;;;;18.42;6.07;;;5.10;99.90;;;;;;4742021;30;20056;-91
2022/01/31 08:47:13;;;;;;;10.43;4.60;;;5.10;99.90;;;;;;4762176;30;20127;-91
2022/01/31 08:50:10;;;;;;;20.27;4.82;;;5.20;99.90;;;;;;4765330;30;20089;-92
2022/01/31 08:52:39;;;;;;;15.63;5.55;;;;;;;;;;4742993;30;20045;-91
2022/01/31 08:55:08;;;;;;;18.27;5.38;;;5.20;99.90;;;;;;4742591;30;20447;-92
2022/01/31 08:57:43;;;;;;;24.80;5.35;;;;;;;;;;4745896;30;20055;-92
2022/01/31 09:00:33;;;;;;;;;;;5.00;99.90;;;;;;4763915;30;20426;-93
2022/01/31 09:06:11;;;;;;;18.70;6.35;;;5.30;99.90;;;;;;4787261;29;20043;-92
2022/01/31 09:09:00;;;;;;;6.38;4.10;;;5.30;99.90;;;;;;4803620;29;20027;-91
2022/01/31 09:11:31;;;;;;;13.23;3.97;;;5.30;99.90;;;;;;4784732;30;20061;-92
2022/01/31 09:14:03;;;;;;;14.40;4.32;;;5.30;99.90;;;;;;4784625;30;20039;-92
2022/01/31 09:20:25;;;;;;;;;;;5.70;99.90;;;;;;4814272;29;20051;-92
2022/01/31 09:23:15;;;;;;;13.23;5.63;;;5.40;99.90;;;;;;4801962;29;19964;-92
2022/01/31 09:26:36;;;;;;;20.88;4.53;;;5.40;99.90;;;;;;4788295;29;20051;-92
2022/01/31 09:30:27;;;;;;;;;;;;;;;;;;;;;
2022/01/31 09:33:50;;;;;;;17.05;4.88;;;5.40;99.90;;;;;;4787644;30;20039;-92
2022/01/31 09:37:20;;;;;;;;;;;;;;;;;;;;;
2022/01/31 09:41:08;;;;;;;15.75;5.05;;;5.40;99.90;;;;;;4816199;29;20056;-92
2022/01/31 09:51:43;;;;;;;17.25;5.40;;;5.30;99.90;;;;;;4804566;29;20031;-93
2022/01/31 09:55:39;;;;;;;31.23;6.22;;;5.40;99.90;;;;;;4788019;29;20039;-93
2022/01/31 09:58:14;;;;;;;16.27;4.43;;;;;;;;;;4775801;30;20043;-92
2022/01/31 10:02:01;;;;;;;23.50;7.10;;;5.40;99.90;;;;;;4748758;30;20067;-93
2022/01/31 10:04:49;;;;;;;24.65;7.20;;;5.40;99.90;;;;;;4788161;30;20059;-91
2022/01/31 10:08:00;;;;;;;13.88;3.72;;;5.40;99.90;;;;;;4771504;29;20103;-92
2022/01/31 10:11:11;;;;;;;25.00;5.68;;;5.30;99.90;;;;;;4768464;29;20078;-93
2022/01/31 10:17:09;;;;;;;22.58;5.55;;;5.40;99.90;;;;;;4794771;30;20032;-93
2022/01/31 10:24:25;;;;;;;9.40;3.85;;;5.40;99.90;;;;;;4760970;30;20040;-92
2022/01/31 10:35:44;;;;;;;23.83;8.13;;;5.50;99.90;;;;;;4698807;30;20044;-92
2022/01/31 10:38:54;;;;;;;16.15;6.90;;;5.50;99.90;;;;;;4749685;30;20037;-92
2022/01/31 10:53:25;;;;;;;24.45;8.57;;;5.60;99.90;;;;;;4790683;30;20050;-93
2022/01/31 10:56:22;;;;;;;14.00;7.75;;;5.60;99.90;;;;;;4753809;29;20049;-92
2022/01/31 11:03:10;;;;;;;26.17;7.90;;;5.60;99.90;;;;;;4790699;30;20071;-92
2022/01/31 11:06:26;;;;;;;;;;;;;;;;;;;;;
2022/01/31 11:10:01;;;;;;;20.83;7.15;;;5.50;99.90;;;;;;4764634;30;20047;-91
2022/01/31 11:13:33;;;;;;;22.20;8.88;;;5.40;99.90;;;;;;4737349;30;20447;-92
2022/01/31 11:28:36;;;;;;;;;;;;;;;;;;;;;
2022/01/31 11:39:45;;;;;;;23.27;6.75;;;5.30;99.90;;;;;;4753622;30;20050;-92
2022/01/31 11:50:13;;;;;;;16.02;6.43;;;5.40;99.90;;;;;;4868923;24;20062;-94
2022/01/31 11:57:38;;;;;;;28.25;8.32;;;5.50;99.90;;;;;;4751515;30;20055;-93
2022/01/31 12:01:19;;;;;;;;;;;;;;;;;;;;;
2022/01/31 12:08:40;;;;;;;;;;;;;;;;;;;;;
2022/01/31 12:12:44;;;;;;;23.02;7.32;;;5.40;99.90;;;;;;4759498;30;20037;-92
2022/01/31 12:16:40;;;;;;;;;;;;;;;;;;;;;
2022/01/31 12:24:30;;;;;;;;;;;;;;;;;;;;;
2022/01/31 12:27:51;;;;;;;31.95;8.13;;;5.40;99.90;;;;;;4681362;30;20145;-92
2022/01/31 12:30:51;;;;;;;20.70;7.63;;;5.30;99.90;;;;;;4728347;30;20507;-92
2022/01/31 12:37:32;;;;;;;42.65;9.38;;;5.30;99.90;;;;;;4727473;30;20053;-92
2022/01/31 12:40:51;;;;;;;23.45;7.28;;;5.30;99.90;;;;;;4728078;30;20049;-91
2022/01/31 12:48:23;;;;;;;28.25;7.32;;;5.20;99.90;;;;;;4795049;30;20089;-92
2022/01/31 12:51:27;;;;;;;26.20;8.20;;;5.20;99.90;;;;;;4768974;30;20391;-92
2022/01/31 13:47:24;;;;;;;39.70;11.30;;;5.00;99.90;;;;;;4695683;30;20053;-92
2022/01/31 14:04:15;;;;;;;30.80;9.70;;;5.00;99.90;;;;;;946635;23;20402;31
2022/01/31 14:11:23;;;;;;;;;;;;;;;;;;;;;
2022/01/31 14:14:42;;;;;;;35.28;11.07;;;5.10;99.90;;;;;;4820471;29;20043;-92
2022/01/31 14:21:54;;;;;;;19.10;8.90;;;5.20;99.90;;;;;;4805628;30;20051;-91
2022/01/31 14:29:27;;;;;;;28.73;8.73;;;5.10;99.90;;;;;;4818254;29;20038;-91
2022/01/31 14:33:11;;;;;;;43.05;13.68;;;5.10;99.90;;;;;;4807030;29;20039;-93
2022/01/31 14:37:03;;;;;;;43.15;11.10;;;5.20;99.90;;;;;;4809336;29;20031;-92
2022/01/31 14:48:10;;;;;;;27.98;9.20;;;5.20;99.90;;;;;;4734029;30;20078;-92
2022/01/31 14:55:04;;;;;;;38.28;11.50;;;5.20;99.90;;;;;;4783664;30;20047;-92
2022/01/31 14:58:34;;;;;;;28.90;8.48;;;5.20;99.90;;;;;;4765843;30;20055;-93
2022/01/31 15:02:07;;;;;;;;;;;;;;;;;;;;;
2022/01/31 15:17:50;;;;;;;;;;;;;;;;;;;;;
2022/01/31 15:21:28;;;;;;;50.58;12.07;;;5.10;99.90;;;;;;4738061;30;19922;-93
2022/01/31 15:24:54;;;;;;;35.58;10.32;;;5.10;99.90;;;;;;4723994;30;20505;-91
2022/01/31 15:28:12;;;;;;;28.65;8.73;;;5.10;99.90;;;;;;4731962;30;20128;-92
2022/01/31 15:35:53;;;;;;;;;;;;;;;;;;;;;
2022/01/31 15:39:29;;;;;;;;;;;5.30;99.90;;;;;;4765756;30;20056;-93
2022/01/31 15:47:04;;;;;;;37.20;9.77;;;5.20;99.90;;;;;;4746924;30;20542;-92
2022/01/31 16:07:18;;;;;;;;;;;;;;;;;;;;;
2022/01/31 16:10:47;;;;;;;;;;;;;;;;;;;;;
2022/01/31 16:14:28;;;;;;;32.72;9.80;;;5.30;99.90;;;;;;4746612;30;20314;-92
2022/01/31 16:17:56;;;;;;;40.50;11.07;;;5.20;99.90;;;;;;4743946;30;20112;-93
